sensor_id;sensor_type;location;lat;lon;timestamp;temperature;humidity
56771;DHT22;42641;59.794;17.616;2024-02-26T00:00:29;1.10;99.90
56771;DHT22;42641;59.794;17.616;2024-02-26T00:02:56;1.10;99.90
56771;DHT22;42641;59.794;17.616;2024-02-26T00:05:22;1.10;99.90
56771;DHT22;42641;59.794;17.616;2024-02-26T00:07:49;1.00;99.90
56771;DHT22;42641;59.794;17.616;2024-02-26T00:10:15;1.00;99.90
56771;DHT22;42641;59.794;17.616;2024-02-26T00:12:41;1.00;99.90
56771;DHT22;42641;59.794;17.616;2024-02-26T00:15:08;0.90;99.90
56771;DHT22;42641;59.794;17.616;2024-02-26T00:17:35;0.80;99.90
56771;DHT22;42641;59.794;17.616;2024-02-26T00:20:05;0.80;99.90
56771;DHT22;42641;59.794;17.616;2024-02-26T00:22:35;0.80;99.90
56771;DHT22;42641;59.794;17.616;2024-02-26T00:25:01;0.70;99.90
56771;DHT22;42641;59.794;17.616;2024-02-26T00:27:27;0.60;99.90
56771;DHT22;42641;59.794;17.616;2024-02-26T00:29:54;0.50;99.90
56771;DHT22;42641;59.794;17.616;2024-02-26T00:32:20;0.50;99.90
56771;DHT22;42641;59.794;17.616;2024-02-26T00:34:46;0.50;99.90
56771;DHT22;42641;59.794;17.616;2024-02-26T00:37:13;0.50;99.90
56771;DHT22;42641;59.794;17.616;2024-02-26T00:39:39;0.50;99.90
56771;DHT22;42641;59.794;17.616;2024-02-26T00:42:06;0.50;99.90
56771;DHT22;42641;59.794;17.616;2024-02-26T00:44:32;0.50;99.90
56771;DHT22;42641;59.794;17.616;2024-02-26T00:46:58;0.60;99.90
56771;DHT22;42641;59.794;17.616;2024-02-26T00:49:25;0.50;99.90
56771;DHT22;42641;59.794;17.616;2024-02-26T00:51:51;0.60;99.90
56771;DHT22;42641;59.794;17.616;2024-02-26T00:54:17;0.50;99.90
56771;DHT22;42641;59.794;17.616;2024-02-26T00:56:44;0.50;99.90
56771;DHT22;42641;59.794;17.616;2024-02-26T00:59:10;0.50;99.90
56771;DHT22;42641;59.794;17.616;2024-02-26T01:01:36;0.50;99.90
56771;DHT22;42641;59.794;17.616;2024-02-26T01:04:03;0.50;99.90
56771;DHT22;42641;59.794;17.616;2024-02-26T01:06:30;0.50;99.90
56771;DHT22;42641;59.794;17.616;2024-02-26T01:08:56;0.60;99.90
56771;DHT22;42641;59.794;17.616;2024-02-26T01:11:22;0.60;99.90
56771;DHT22;42641;59.794;17.616;2024-02-26T01:13:49;0.70;99.90
56771;DHT22;42641;59.794;17.616;2024-02-26T01:16:19;0.80;99.90
56771;DHT22;42641;59.794;17.616;2024-02-26T01:18:45;0.80;99.90
56771;DHT22;42641;59.794;17.616;2024-02-26T01:21:12;0.90;99.90
56771;DHT22;42641;59.794;17.616;2024-02-26T01:23:38;0.90;99.90
56771;DHT22;42641;59.794;17.616;2024-02-26T01:26:04;1.00;99.90
56771;DHT22;42641;59.794;17.616;2024-02-26T01:28:31;1.00;99.90
56771;DHT22;42641;59.794;17.616;2024-02-26T01:30:57;1.00;99.90
56771;DHT22;42641;59.794;17.616;2024-02-26T01:33:26;1.00;99.90
56771;DHT22;42641;59.794;17.616;2024-02-26T01:35:52;1.00;99.90
56771;DHT22;42641;59.794;17.616;2024-02-26T01:38:19;1.00;99.90
56771;DHT22;42641;59.794;17.616;2024-02-26T01:40:45;1.10;99.90
56771;DHT22;42641;59.794;17.616;2024-02-26T01:43:12;1.10;99.90
56771;DHT22;42641;59.794;17.616;2024-02-26T01:45:38;1.10;99.90
56771;DHT22;42641;59.794;17.616;2024-02-26T01:48:05;1.20;99.90
56771;DHT22;42641;59.794;17.616;2024-02-26T01:50:31;1.20;99.90
56771;DHT22;42641;59.794;17.616;2024-02-26T01:53:00;1.20;99.90
56771;DHT22;42641;59.794;17.616;2024-02-26T01:55:27;1.20;99.90
56771;DHT22;42641;59.794;17.616;2024-02-26T01:57:53;1.10;99.90
56771;DHT22;42641;59.794;17.616;2024-02-26T02:00:21;1.20;99.90
56771;DHT22;42641;59.794;17.616;2024-02-26T02:02:49;1.10;99.90
56771;DHT22;42641;59.794;17.616;2024-02-26T02:05:16;1.10;99.90
56771;DHT22;42641;59.794;17.616;2024-02-26T02:07:44;1.10;99.90
56771;DHT22;42641;59.794;17.616;2024-02-26T02:10:11;1.10;99.90
56771;DHT22;42641;59.794;17.616;2024-02-26T02:12:37;1.10;99.90
56771;DHT22;42641;59.794;17.616;2024-02-26T02:15:06;1.20;99.90
56771;DHT22;42641;59.794;17.616;2024-02-26T02:17:33;1.20;99.90
56771;DHT22;42641;59.794;17.616;2024-02-26T02:19:59;1.20;99.90
56771;DHT22;42641;59.794;17.616;2024-02-26T02:22:25;1.30;99.90
56771;DHT22;42641;59.794;17.616;2024-02-26T02:24:52;1.30;99.90
56771;DHT22;42641;59.794;17.616;2024-02-26T02:27:19;1.40;99.90
56771;DHT22;42641;59.794;17.616;2024-02-26T02:29:47;1.40;99.90
56771;DHT22;42641;59.794;17.616;2024-02-26T02:32:14;1.50;99.90
56771;DHT22;42641;59.794;17.616;2024-02-26T02:34:42;1.50;99.90
56771;DHT22;42641;59.794;17.616;2024-02-26T02:37:08;1.50;99.90
56771;DHT22;42641;59.794;17.616;2024-02-26T02:39:35;1.50;99.90
56771;DHT22;42641;59.794;17.616;2024-02-26T02:42:01;1.50;99.90
56771;DHT22;42641;59.794;17.616;2024-02-26T02:44:27;1.50;99.90
56771;DHT22;42641;59.794;17.616;2024-02-26T02:46:54;1.60;99.90
56771;DHT22;42641;59.794;17.616;2024-02-26T02:49:20;1.70;99.90
56771;DHT22;42641;59.794;17.616;2024-02-26T02:51:46;1.70;99.90
56771;DHT22;42641;59.794;17.616;2024-02-26T02:54:13;1.80;99.90
56771;DHT22;42641;59.794;17.616;2024-02-26T02:56:39;1.80;99.90
56771;DHT22;42641;59.794;17.616;2024-02-26T02:59:05;1.90;99.90
56771;DHT22;42641;59.794;17.616;2024-02-26T03:01:32;1.90;99.90
56771;DHT22;42641;59.794;17.616;2024-02-26T03:03:58;1.90;99.90
56771;DHT22;42641;59.794;17.616;2024-02-26T03:06:24;1.90;99.90
56771;DHT22;42641;59.794;17.616;2024-02-26T03:08:53;2.00;99.90
56771;DHT22;42641;59.794;17.616;2024-02-26T03:11:20;2.00;99.90
56771;DHT22;42641;59.794;17.616;2024-02-26T03:13:47;2.00;99.90
56771;DHT22;42641;59.794;17.616;2024-02-26T03:16:13;1.90;99.90
56771;DHT22;42641;59.794;17.616;2024-02-26T03:18:40;1.90;99.90
56771;DHT22;42641;59.794;17.616;2024-02-26T03:21:07;1.90;99.90
56771;DHT22;42641;59.794;17.616;2024-02-26T03:23:35;1.90;99.90
56771;DHT22;42641;59.794;17.616;2024-02-26T03:26:04;1.90;99.90
56771;DHT22;42641;59.794;17.616;2024-02-26T03:28:30;1.90;99.90
56771;DHT22;42641;59.794;17.616;2024-02-26T03:31:00;2.00;99.90
56771;DHT22;42641;59.794;17.616;2024-02-26T03:33:27;2.00;99.90
56771;DHT22;42641;59.794;17.616;2024-02-26T03:35:54;2.00;99.90
56771;DHT22;42641;59.794;17.616;2024-02-26T03:38:20;1.90;99.90
56771;DHT22;42641;59.794;17.616;2024-02-26T03:40:46;1.90;99.90
56771;DHT22;42641;59.794;17.616;2024-02-26T03:43:13;1.80;99.90
56771;DHT22;42641;59.794;17.616;2024-02-26T03:45:39;1.70;99.90
56771;DHT22;42641;59.794;17.616;2024-02-26T03:48:06;1.80;99.90
56771;DHT22;42641;59.794;17.616;2024-02-26T03:50:32;1.70;99.90
56771;DHT22;42641;59.794;17.616;2024-02-26T03:52:59;1.80;99.90
56771;DHT22;42641;59.794;17.616;2024-02-26T03:55:25;1.80;99.90
56771;DHT22;42641;59.794;17.616;2024-02-26T03:57:52;1.80;99.90
56771;DHT22;42641;59.794;17.616;2024-02-26T04:00:19;1.80;99.90
56771;DHT22;42641;59.794;17.616;2024-02-26T04:02:47;1.70;99.90
56771;DHT22;42641;59.794;17.616;2024-02-26T04:05:15;1.70;99.90
56771;DHT22;42641;59.794;17.616;2024-02-26T04:07:41;1.70;99.90
56771;DHT22;42641;59.794;17.616;2024-02-26T04:10:11;1.60;99.90
56771;DHT22;42641;59.794;17.616;2024-02-26T04:12:41;1.60;99.90
56771;DHT22;42641;59.794;17.616;2024-02-26T04:15:09;1.60;99.90
56771;DHT22;42641;59.794;17.616;2024-02-26T04:17:37;1.60;99.90
56771;DHT22;42641;59.794;17.616;2024-02-26T04:20:04;1.60;99.90
56771;DHT22;42641;59.794;17.616;2024-02-26T04:22:32;1.70;99.90
56771;DHT22;42641;59.794;17.616;2024-02-26T04:24:59;1.70;99.90
56771;DHT22;42641;59.794;17.616;2024-02-26T04:27:25;1.70;99.90
56771;DHT22;42641;59.794;17.616;2024-02-26T04:29:52;1.70;99.90
56771;DHT22;42641;59.794;17.616;2024-02-26T04:32:18;1.70;99.90
56771;DHT22;42641;59.794;17.616;2024-02-26T04:34:45;1.70;99.90
56771;DHT22;42641;59.794;17.616;2024-02-26T04:37:11;1.80;99.90
56771;DHT22;42641;59.794;17.616;2024-02-26T04:39:38;1.70;99.90
56771;DHT22;42641;59.794;17.616;2024-02-26T04:42:04;1.80;99.90
56771;DHT22;42641;59.794;17.616;2024-02-26T04:44:30;1.80;99.90
56771;DHT22;42641;59.794;17.616;2024-02-26T04:46:57;1.90;99.90
56771;DHT22;42641;59.794;17.616;2024-02-26T04:49:23;2.00;99.90
56771;DHT22;42641;59.794;17.616;2024-02-26T04:51:49;2.00;99.90
56771;DHT22;42641;59.794;17.616;2024-02-26T04:54:16;2.00;99.90
56771;DHT22;42641;59.794;17.616;2024-02-26T04:56:43;1.90;99.90
56771;DHT22;42641;59.794;17.616;2024-02-26T04:59:10;1.90;99.90
56771;DHT22;42641;59.794;17.616;2024-02-26T05:01:36;1.90;99.90
56771;DHT22;42641;59.794;17.616;2024-02-26T05:04:03;1.90;99.90
56771;DHT22;42641;59.794;17.616;2024-02-26T05:06:30;2.00;99.90
56771;DHT22;42641;59.794;17.616;2024-02-26T05:08:57;2.00;99.90
56771;DHT22;42641;59.794;17.616;2024-02-26T05:11:23;2.10;99.90
56771;DHT22;42641;59.794;17.616;2024-02-26T05:13:50;2.10;99.90
56771;DHT22;42641;59.794;17.616;2024-02-26T05:16:16;2.10;99.90
56771;DHT22;42641;59.794;17.616;2024-02-26T05:18:42;2.20;99.90
56771;DHT22;42641;59.794;17.616;2024-02-26T05:21:09;2.20;99.90
56771;DHT22;42641;59.794;17.616;2024-02-26T05:23:35;2.20;99.90
56771;DHT22;42641;59.794;17.616;2024-02-26T05:26:02;2.30;99.90
56771;DHT22;42641;59.794;17.616;2024-02-26T05:28:28;2.30;99.90
56771;DHT22;42641;59.794;17.616;2024-02-26T05:30:55;2.30;99.90
56771;DHT22;42641;59.794;17.616;2024-02-26T05:33:21;2.30;99.90
56771;DHT22;42641;59.794;17.616;2024-02-26T05:35:49;2.30;99.90
56771;DHT22;42641;59.794;17.616;2024-02-26T05:38:15;2.30;99.90
56771;DHT22;42641;59.794;17.616;2024-02-26T05:40:42;2.30;99.90
56771;DHT22;42641;59.794;17.616;2024-02-26T05:43:08;2.40;99.90
56771;DHT22;42641;59.794;17.616;2024-02-26T05:45:34;2.30;99.90
56771;DHT22;42641;59.794;17.616;2024-02-26T05:48:01;2.20;99.90
56771;DHT22;42641;59.794;17.616;2024-02-26T05:50:27;2.10;99.90
56771;DHT22;42641;59.794;17.616;2024-02-26T05:52:54;2.10;99.90
56771;DHT22;42641;59.794;17.616;2024-02-26T05:55:20;2.00;99.90
56771;DHT22;42641;59.794;17.616;2024-02-26T05:57:46;2.00;99.90
56771;DHT22;42641;59.794;17.616;2024-02-26T06:00:13;2.00;99.90
56771;DHT22;42641;59.794;17.616;2024-02-26T06:02:39;1.90;99.90
56771;DHT22;42641;59.794;17.616;2024-02-26T06:05:06;1.90;99.90
56771;DHT22;42641;59.794;17.616;2024-02-26T06:07:34;1.90;99.90
56771;DHT22;42641;59.794;17.616;2024-02-26T06:10:02;1.90;99.90
56771;DHT22;42641;59.794;17.616;2024-02-26T06:12:29;1.90;99.90
56771;DHT22;42641;59.794;17.616;2024-02-26T06:14:57;1.90;99.90
56771;DHT22;42641;59.794;17.616;2024-02-26T06:17:24;2.00;99.90
56771;DHT22;42641;59.794;17.616;2024-02-26T06:19:51;2.00;99.90
56771;DHT22;42641;59.794;17.616;2024-02-26T06:22:17;2.10;99.90
56771;DHT22;42641;59.794;17.616;2024-02-26T06:24:44;2.10;99.90
56771;DHT22;42641;59.794;17.616;2024-02-26T06:27:10;2.10;99.90
56771;DHT22;42641;59.794;17.616;2024-02-26T06:29:36;2.20;99.90
56771;DHT22;42641;59.794;17.616;2024-02-26T06:32:03;2.30;99.90
56771;DHT22;42641;59.794;17.616;2024-02-26T06:34:29;2.40;99.90
56771;DHT22;42641;59.794;17.616;2024-02-26T06:36:55;2.40;99.90
56771;DHT22;42641;59.794;17.616;2024-02-26T06:39:22;2.50;99.90
56771;DHT22;42641;59.794;17.616;2024-02-26T06:41:48;2.50;99.90
56771;DHT22;42641;59.794;17.616;2024-02-26T06:44:15;2.50;99.90
56771;DHT22;42641;59.794;17.616;2024-02-26T06:46:41;2.60;99.90
56771;DHT22;42641;59.794;17.616;2024-02-26T06:49:07;2.60;99.90
56771;DHT22;42641;59.794;17.616;2024-02-26T06:51:34;2.70;99.90
56771;DHT22;42641;59.794;17.616;2024-02-26T06:54:00;2.70;99.90
56771;DHT22;42641;59.794;17.616;2024-02-26T06:56:27;2.70;99.90
56771;DHT22;42641;59.794;17.616;2024-02-26T06:58:53;2.70;99.90
56771;DHT22;42641;59.794;17.616;2024-02-26T07:01:19;2.70;99.90
56771;DHT22;42641;59.794;17.616;2024-02-26T07:03:46;2.70;99.90
56771;DHT22;42641;59.794;17.616;2024-02-26T07:06:12;2.70;99.90
56771;DHT22;42641;59.794;17.616;2024-02-26T07:08:40;2.70;99.90
56771;DHT22;42641;59.794;17.616;2024-02-26T07:11:10;2.70;99.90
56771;DHT22;42641;59.794;17.616;2024-02-26T07:13:37;2.70;99.90
56771;DHT22;42641;59.794;17.616;2024-02-26T07:16:04;2.70;99.90
56771;DHT22;42641;59.794;17.616;2024-02-26T07:18:32;2.80;99.90
56771;DHT22;42641;59.794;17.616;2024-02-26T07:21:02;2.80;99.90
56771;DHT22;42641;59.794;17.616;2024-02-26T07:23:28;2.90;99.90
56771;DHT22;42641;59.794;17.616;2024-02-26T07:25:54;3.00;99.90
56771;DHT22;42641;59.794;17.616;2024-02-26T07:28:21;3.00;99.90
56771;DHT22;42641;59.794;17.616;2024-02-26T07:30:47;3.10;99.90
56771;DHT22;42641;59.794;17.616;2024-02-26T07:33:13;3.20;99.90
56771;DHT22;42641;59.794;17.616;2024-02-26T07:35:40;3.30;99.90
56771;DHT22;42641;59.794;17.616;2024-02-26T07:38:06;3.40;99.90
56771;DHT22;42641;59.794;17.616;2024-02-26T07:40:32;3.40;99.90
56771;DHT22;42641;59.794;17.616;2024-02-26T07:42:59;3.40;99.90
56771;DHT22;42641;59.794;17.616;2024-02-26T07:45:25;3.50;99.90
56771;DHT22;42641;59.794;17.616;2024-02-26T07:47:51;3.40;99.90
56771;DHT22;42641;59.794;17.616;2024-02-26T07:50:18;3.40;99.90
56771;DHT22;42641;59.794;17.616;2024-02-26T07:52:45;3.50;99.90
56771;DHT22;42641;59.794;17.616;2024-02-26T07:55:12;3.50;99.90
56771;DHT22;42641;59.794;17.616;2024-02-26T07:57:42;3.60;99.90
56771;DHT22;42641;59.794;17.616;2024-02-26T08:00:09;3.60;99.90
56771;DHT22;42641;59.794;17.616;2024-02-26T08:02:38;3.70;99.90
56771;DHT22;42641;59.794;17.616;2024-02-26T08:05:05;3.70;99.90
56771;DHT22;42641;59.794;17.616;2024-02-26T08:07:32;3.80;99.90
56771;DHT22;42641;59.794;17.616;2024-02-26T08:09:58;3.90;99.90
56771;DHT22;42641;59.794;17.616;2024-02-26T08:12:24;3.90;99.90
56771;DHT22;42641;59.794;17.616;2024-02-26T08:14:51;3.90;99.90
56771;DHT22;42641;59.794;17.616;2024-02-26T08:17:17;4.00;99.90
56771;DHT22;42641;59.794;17.616;2024-02-26T08:19:43;4.00;99.90
56771;DHT22;42641;59.794;17.616;2024-02-26T08:22:10;4.10;99.90
56771;DHT22;42641;59.794;17.616;2024-02-26T08:24:42;4.20;99.90
56771;DHT22;42641;59.794;17.616;2024-02-26T08:27:08;4.20;99.90
56771;DHT22;42641;59.794;17.616;2024-02-26T08:29:35;4.20;99.90
56771;DHT22;42641;59.794;17.616;2024-02-26T08:32:01;4.30;99.90
56771;DHT22;42641;59.794;17.616;2024-02-26T08:34:28;4.30;99.90
56771;DHT22;42641;59.794;17.616;2024-02-26T08:36:54;4.40;99.90
56771;DHT22;42641;59.794;17.616;2024-02-26T08:39:21;4.50;99.90
56771;DHT22;42641;59.794;17.616;2024-02-26T08:41:47;4.50;99.90
56771;DHT22;42641;59.794;17.616;2024-02-26T08:44:13;4.40;99.90
56771;DHT22;42641;59.794;17.616;2024-02-26T08:46:40;4.40;99.90
56771;DHT22;42641;59.794;17.616;2024-02-26T08:49:06;4.40;99.90
56771;DHT22;42641;59.794;17.616;2024-02-26T08:51:32;4.50;99.90
56771;DHT22;42641;59.794;17.616;2024-02-26T08:53:59;4.60;99.90
56771;DHT22;42641;59.794;17.616;2024-02-26T08:56:25;4.60;99.90
56771;DHT22;42641;59.794;17.616;2024-02-26T08:58:51;4.60;99.90
56771;DHT22;42641;59.794;17.616;2024-02-26T09:01:19;4.60;99.90
56771;DHT22;42641;59.794;17.616;2024-02-26T09:03:46;4.60;99.90
56771;DHT22;42641;59.794;17.616;2024-02-26T09:06:15;4.60;99.90
56771;DHT22;42641;59.794;17.616;2024-02-26T09:08:41;4.60;99.90
56771;DHT22;42641;59.794;17.616;2024-02-26T09:11:08;4.60;99.90
56771;DHT22;42641;59.794;17.616;2024-02-26T09:13:36;4.60;99.90
56771;DHT22;42641;59.794;17.616;2024-02-26T09:16:02;4.60;99.90
56771;DHT22;42641;59.794;17.616;2024-02-26T09:18:29;4.60;99.90
56771;DHT22;42641;59.794;17.616;2024-02-26T09:20:55;4.60;99.90
56771;DHT22;42641;59.794;17.616;2024-02-26T09:23:22;4.60;99.90
56771;DHT22;42641;59.794;17.616;2024-02-26T09:25:48;4.70;99.90
56771;DHT22;42641;59.794;17.616;2024-02-26T09:28:14;4.80;99.90
56771;DHT22;42641;59.794;17.616;2024-02-26T09:30:44;4.90;99.90
56771;DHT22;42641;59.794;17.616;2024-02-26T09:33:10;4.90;99.90
56771;DHT22;42641;59.794;17.616;2024-02-26T09:35:37;5.00;99.90
56771;DHT22;42641;59.794;17.616;2024-02-26T09:38:04;5.00;99.90
56771;DHT22;42641;59.794;17.616;2024-02-26T09:40:30;5.00;99.90
56771;DHT22;42641;59.794;17.616;2024-02-26T09:43:00;4.90;99.90
56771;DHT22;42641;59.794;17.616;2024-02-26T09:45:28;5.00;99.90
56771;DHT22;42641;59.794;17.616;2024-02-26T09:47:57;4.90;99.90
56771;DHT22;42641;59.794;17.616;2024-02-26T09:50:24;4.90;99.90
56771;DHT22;42641;59.794;17.616;2024-02-26T09:52:51;4.90;99.90
56771;DHT22;42641;59.794;17.616;2024-02-26T09:55:19;4.90;99.90
56771;DHT22;42641;59.794;17.616;2024-02-26T09:57:46;5.00;99.90
56771;DHT22;42641;59.794;17.616;2024-02-26T10:00:17;5.10;99.90
56771;DHT22;42641;59.794;17.616;2024-02-26T10:02:48;5.20;99.90
56771;DHT22;42641;59.794;17.616;2024-02-26T10:05:17;5.20;99.90
56771;DHT22;42641;59.794;17.616;2024-02-26T10:07:46;5.20;99.90
56771;DHT22;42641;59.794;17.616;2024-02-26T10:10:14;5.20;99.90
56771;DHT22;42641;59.794;17.616;2024-02-26T10:12:40;5.30;99.90
56771;DHT22;42641;59.794;17.616;2024-02-26T10:15:07;5.30;99.90
56771;DHT22;42641;59.794;17.616;2024-02-26T10:17:34;5.40;99.90
56771;DHT22;42641;59.794;17.616;2024-02-26T10:20:13;5.50;99.90
56771;DHT22;42641;59.794;17.616;2024-02-26T10:22:49;5.60;99.90
56771;DHT22;42641;59.794;17.616;2024-02-26T10:25:16;5.50;99.90
56771;DHT22;42641;59.794;17.616;2024-02-26T10:27:42;5.60;99.90
56771;DHT22;42641;59.794;17.616;2024-02-26T10:30:22;5.70;99.90
56771;DHT22;42641;59.794;17.616;2024-02-26T10:32:49;5.90;99.90
56771;DHT22;42641;59.794;17.616;2024-02-26T10:35:16;6.00;99.90
56771;DHT22;42641;59.794;17.616;2024-02-26T10:37:47;6.20;99.90
56771;DHT22;42641;59.794;17.616;2024-02-26T10:40:14;6.30;99.90
56771;DHT22;42641;59.794;17.616;2024-02-26T10:42:41;6.40;99.90
56771;DHT22;42641;59.794;17.616;2024-02-26T10:45:09;6.40;99.90
56771;DHT22;42641;59.794;17.616;2024-02-26T10:47:37;6.40;99.90
56771;DHT22;42641;59.794;17.616;2024-02-26T10:50:05;6.50;99.90
56771;DHT22;42641;59.794;17.616;2024-02-26T10:52:36;6.80;99.90
56771;DHT22;42641;59.794;17.616;2024-02-26T10:55:04;6.80;99.90
56771;DHT22;42641;59.794;17.616;2024-02-26T10:57:39;6.80;99.90
56771;DHT22;42641;59.794;17.616;2024-02-26T11:00:06;6.80;99.90
56771;DHT22;42641;59.794;17.616;2024-02-26T11:02:34;6.90;99.90
56771;DHT22;42641;59.794;17.616;2024-02-26T11:05:06;7.00;99.90
56771;DHT22;42641;59.794;17.616;2024-02-26T11:07:34;7.10;99.90
56771;DHT22;42641;59.794;17.616;2024-02-26T11:10:03;7.20;99.90
56771;DHT22;42641;59.794;17.616;2024-02-26T11:12:32;7.30;99.90
56771;DHT22;42641;59.794;17.616;2024-02-26T11:15:01;7.10;99.90
56771;DHT22;42641;59.794;17.616;2024-02-26T11:17:28;7.10;99.90
56771;DHT22;42641;59.794;17.616;2024-02-26T11:19:59;7.10;99.90
56771;DHT22;42641;59.794;17.616;2024-02-26T11:22:25;7.00;99.90
56771;DHT22;42641;59.794;17.616;2024-02-26T11:24:53;6.90;99.90
56771;DHT22;42641;59.794;17.616;2024-02-26T11:27:24;6.90;99.90
56771;DHT22;42641;59.794;17.616;2024-02-26T11:29:54;6.80;99.90
56771;DHT22;42641;59.794;17.616;2024-02-26T11:32:21;6.70;99.90
56771;DHT22;42641;59.794;17.616;2024-02-26T11:34:48;6.60;99.90
56771;DHT22;42641;59.794;17.616;2024-02-26T11:37:16;6.60;99.90
56771;DHT22;42641;59.794;17.616;2024-02-26T11:39:45;6.50;99.90
56771;DHT22;42641;59.794;17.616;2024-02-26T11:42:14;6.50;99.90
56771;DHT22;42641;59.794;17.616;2024-02-26T11:44:41;6.50;99.90
56771;DHT22;42641;59.794;17.616;2024-02-26T11:47:21;6.60;99.90
56771;DHT22;42641;59.794;17.616;2024-02-26T11:49:48;6.70;99.90
56771;DHT22;42641;59.794;17.616;2024-02-26T11:52:15;7.30;99.90
56771;DHT22;42641;59.794;17.616;2024-02-26T11:54:52;8.20;99.90
56771;DHT22;42641;59.794;17.616;2024-02-26T12:00:17;9.30;99.90
56771;DHT22;42641;59.794;17.616;2024-02-26T12:02:52;9.50;99.90
56771;DHT22;42641;59.794;17.616;2024-02-26T12:05:31;9.40;99.90
56771;DHT22;42641;59.794;17.616;2024-02-26T12:08:05;9.10;99.90
56771;DHT22;42641;59.794;17.616;2024-02-26T12:10:35;8.70;99.90
56771;DHT22;42641;59.794;17.616;2024-02-26T12:15:40;8.10;99.90
56771;DHT22;42641;59.794;17.616;2024-02-26T12:18:09;8.10;99.90
56771;DHT22;42641;59.794;17.616;2024-02-26T12:20:39;8.10;99.90
56771;DHT22;42641;59.794;17.616;2024-02-26T12:23:05;8.20;99.90
56771;DHT22;42641;59.794;17.616;2024-02-26T12:25:32;8.40;99.90
56771;DHT22;42641;59.794;17.616;2024-02-26T12:27:59;8.40;99.90
56771;DHT22;42641;59.794;17.616;2024-02-26T12:30:26;8.50;99.90
56771;DHT22;42641;59.794;17.616;2024-02-26T12:33:00;8.60;99.90
56771;DHT22;42641;59.794;17.616;2024-02-26T12:35:28;8.70;99.90
56771;DHT22;42641;59.794;17.616;2024-02-26T12:37:54;8.70;99.90
56771;DHT22;42641;59.794;17.616;2024-02-26T12:40:21;8.60;99.90
56771;DHT22;42641;59.794;17.616;2024-02-26T12:42:48;8.60;99.90
56771;DHT22;42641;59.794;17.616;2024-02-26T12:45:14;8.60;99.90
56771;DHT22;42641;59.794;17.616;2024-02-26T12:47:45;8.60;99.90
56771;DHT22;42641;59.794;17.616;2024-02-26T12:50:12;8.60;99.90
56771;DHT22;42641;59.794;17.616;2024-02-26T12:52:46;8.60;99.90
56771;DHT22;42641;59.794;17.616;2024-02-26T12:55:18;8.60;99.90
56771;DHT22;42641;59.794;17.616;2024-02-26T12:57:45;8.40;99.90
56771;DHT22;42641;59.794;17.616;2024-02-26T13:00:15;8.30;99.90
56771;DHT22;42641;59.794;17.616;2024-02-26T13:02:42;8.20;99.90
56771;DHT22;42641;59.794;17.616;2024-02-26T13:05:12;8.00;99.90
56771;DHT22;42641;59.794;17.616;2024-02-26T13:07:46;7.90;99.90
56771;DHT22;42641;59.794;17.616;2024-02-26T13:10:17;7.70;99.90
56771;DHT22;42641;59.794;17.616;2024-02-26T13:12:47;7.60;99.90
56771;DHT22;42641;59.794;17.616;2024-02-26T13:15:18;7.60;99.90
56771;DHT22;42641;59.794;17.616;2024-02-26T13:17:45;7.70;99.90
56771;DHT22;42641;59.794;17.616;2024-02-26T13:20:13;7.80;99.90
56771;DHT22;42641;59.794;17.616;2024-02-26T13:22:41;7.70;99.90
56771;DHT22;42641;59.794;17.616;2024-02-26T13:25:07;7.60;99.90
56771;DHT22;42641;59.794;17.616;2024-02-26T13:27:34;7.60;99.90
56771;DHT22;42641;59.794;17.616;2024-02-26T13:30:11;7.70;99.90
56771;DHT22;42641;59.794;17.616;2024-02-26T13:32:41;7.80;99.90
56771;DHT22;42641;59.794;17.616;2024-02-26T13:35:11;7.80;99.90
56771;DHT22;42641;59.794;17.616;2024-02-26T13:37:38;7.90;99.90
56771;DHT22;42641;59.794;17.616;2024-02-26T13:40:09;8.00;99.90
56771;DHT22;42641;59.794;17.616;2024-02-26T13:42:37;8.10;99.90
56771;DHT22;42641;59.794;17.616;2024-02-26T13:45:04;8.30;99.90
56771;DHT22;42641;59.794;17.616;2024-02-26T13:47:34;8.40;99.90
56771;DHT22;42641;59.794;17.616;2024-02-26T13:50:01;8.60;99.90
56771;DHT22;42641;59.794;17.616;2024-02-26T13:52:28;8.60;99.90
56771;DHT22;42641;59.794;17.616;2024-02-26T13:54:54;8.40;99.90
56771;DHT22;42641;59.794;17.616;2024-02-26T13:57:21;8.20;99.90
56771;DHT22;42641;59.794;17.616;2024-02-26T13:59:47;8.20;99.90
56771;DHT22;42641;59.794;17.616;2024-02-26T14:02:14;8.20;99.90
56771;DHT22;42641;59.794;17.616;2024-02-26T14:04:40;8.20;99.90
56771;DHT22;42641;59.794;17.616;2024-02-26T14:07:07;8.20;99.90
56771;DHT22;42641;59.794;17.616;2024-02-26T14:09:34;8.30;99.90
56771;DHT22;42641;59.794;17.616;2024-02-26T14:12:00;8.20;99.90
56771;DHT22;42641;59.794;17.616;2024-02-26T14:14:30;8.10;99.90
56771;DHT22;42641;59.794;17.616;2024-02-26T14:16:59;8.10;99.90
56771;DHT22;42641;59.794;17.616;2024-02-26T14:19:26;8.00;99.90
56771;DHT22;42641;59.794;17.616;2024-02-26T14:21:52;8.00;99.90
56771;DHT22;42641;59.794;17.616;2024-02-26T14:24:19;7.90;99.90
56771;DHT22;42641;59.794;17.616;2024-02-26T14:26:45;7.90;99.90
56771;DHT22;42641;59.794;17.616;2024-02-26T14:29:12;7.80;99.90
56771;DHT22;42641;59.794;17.616;2024-02-26T14:31:38;7.70;99.90
56771;DHT22;42641;59.794;17.616;2024-02-26T14:34:04;7.60;99.90
56771;DHT22;42641;59.794;17.616;2024-02-26T14:36:31;7.50;99.90
56771;DHT22;42641;59.794;17.616;2024-02-26T14:38:57;7.40;99.90
56771;DHT22;42641;59.794;17.616;2024-02-26T14:41:24;7.40;99.90
56771;DHT22;42641;59.794;17.616;2024-02-26T14:43:50;7.30;99.90
56771;DHT22;42641;59.794;17.616;2024-02-26T14:46:16;7.30;99.90
56771;DHT22;42641;59.794;17.616;2024-02-26T14:48:43;7.10;99.90
56771;DHT22;42641;59.794;17.616;2024-02-26T14:51:10;7.20;99.90
56771;DHT22;42641;59.794;17.616;2024-02-26T14:53:36;7.20;99.90
56771;DHT22;42641;59.794;17.616;2024-02-26T14:56:02;7.20;99.90
56771;DHT22;42641;59.794;17.616;2024-02-26T14:58:29;7.20;99.90
56771;DHT22;42641;59.794;17.616;2024-02-26T15:00:55;7.20;99.90
56771;DHT22;42641;59.794;17.616;2024-02-26T15:03:21;7.10;99.90
56771;DHT22;42641;59.794;17.616;2024-02-26T15:05:48;7.10;99.90
56771;DHT22;42641;59.794;17.616;2024-02-26T15:08:14;7.10;99.90
56771;DHT22;42641;59.794;17.616;2024-02-26T15:10:41;7.10;99.90
56771;DHT22;42641;59.794;17.616;2024-02-26T15:13:15;7.00;99.90
56771;DHT22;42641;59.794;17.616;2024-02-26T15:15:42;6.90;99.90
56771;DHT22;42641;59.794;17.616;2024-02-26T15:18:08;6.90;99.90
56771;DHT22;42641;59.794;17.616;2024-02-26T15:20:37;6.90;99.90
56771;DHT22;42641;59.794;17.616;2024-02-26T15:23:05;6.80;99.90
56771;DHT22;42641;59.794;17.616;2024-02-26T15:25:32;6.80;99.90
56771;DHT22;42641;59.794;17.616;2024-02-26T15:27:59;6.70;99.90
56771;DHT22;42641;59.794;17.616;2024-02-26T15:30:26;6.60;99.90
56771;DHT22;42641;59.794;17.616;2024-02-26T15:32:55;6.50;99.90
56771;DHT22;42641;59.794;17.616;2024-02-26T15:35:22;6.40;99.90